createdAt,value
2022-12-01T00:01:03.409Z,84.14
2022-12-01T00:04:19.697Z,86.55
2022-12-01T00:07:31.434Z,86.50
2022-12-01T00:10:41.408Z,85.28
2022-12-01T00:13:50.303Z,85.22
2022-12-01T00:16:58.437Z,84.47
2022-12-01T00:20:07.718Z,85.09
2022-12-01T00:23:16.572Z,84.77
2022-12-01T00:26:25.375Z,86.02
2022-12-01T00:29:34.597Z,85.20
2022-12-01T00:32:43.368Z,85.45
2022-12-01T00:35:52.367Z,85.61
2022-12-01T00:39:01.572Z,84.52
2022-12-01T00:42:13.389Z,84.41
2022-12-01T00:45:23.767Z,84.21
2022-12-01T00:48:41.872Z,84.59
2022-12-01T00:51:53.741Z,85.04
2022-12-01T00:55:06.221Z,84.59
2022-12-01T00:58:16.368Z,84.49
2022-12-01T01:01:25.382Z,83.84
2022-12-01T01:04:38.389Z,84.35
2022-12-01T01:07:52.807Z,83.21
2022-12-01T01:11:07.442Z,84.08
2022-12-01T01:14:21.937Z,83.36
2022-12-01T01:17:31.370Z,83.12
2022-12-01T01:20:40.369Z,82.74
2022-12-01T01:23:50.304Z,82.74
2022-12-01T01:26:59.410Z,83.00
2022-12-01T01:30:08.200Z,82.69
2022-12-01T01:33:17.411Z,82.75
2022-12-01T01:36:26.408Z,82.26
2022-12-01T01:39:35.305Z,82.16
2022-12-01T01:42:44.303Z,81.63
2022-12-01T01:45:53.321Z,81.98
2022-12-01T01:49:11.025Z,82.22
2022-12-01T01:52:24.238Z,81.97
2022-12-01T01:55:40.529Z,81.44
2022-12-01T01:58:49.369Z,81.32
2022-12-01T02:02:14.208Z,81.81
2022-12-01T02:05:37.998Z,81.59
2022-12-01T02:08:54.414Z,81.71
2022-12-01T02:12:38.832Z,80.99
2022-12-01T02:16:15.959Z,81.12
2022-12-01T02:19:54.191Z,81.31
2022-12-01T02:23:40.372Z,81.40
2022-12-01T02:27:11.412Z,81.02
2022-12-01T02:30:50.111Z,81.58
2022-12-01T02:34:11.717Z,81.44
2022-12-01T02:37:42.102Z,80.93
2022-12-01T02:41:09.486Z,81.21
2022-12-01T02:44:34.516Z,81.14
2022-12-01T02:47:57.360Z,81.63
2022-12-01T02:51:20.300Z,81.77
2022-12-01T02:54:36.940Z,81.58
2022-12-01T02:57:51.374Z,81.78
2022-12-01T03:01:11.451Z,81.63
2022-12-01T03:04:56.750Z,80.86
2022-12-01T03:08:29.505Z,80.71
2022-12-01T03:12:10.802Z,81.18
2022-12-01T03:15:50.746Z,80.80
2022-12-01T03:19:19.366Z,81.67
2022-12-01T03:22:46.705Z,81.18
2022-12-01T03:25:58.366Z,80.88
2022-12-01T03:29:24.719Z,80.97
2022-12-01T03:32:48.176Z,80.78
2022-12-01T03:36:17.613Z,80.74
2022-12-01T03:39:37.363Z,80.20
2022-12-01T03:43:00.945Z,80.83
2022-12-01T03:46:31.640Z,80.39
2022-12-01T03:49:46.604Z,81.46
2022-12-01T03:53:25.997Z,80.45
2022-12-01T03:56:46.992Z,80.75
2022-12-01T04:00:04.401Z,80.49
2022-12-01T04:03:24.909Z,80.90
2022-12-01T04:06:34.391Z,81.03
2022-12-01T04:09:44.125Z,80.98
2022-12-01T04:12:52.683Z,80.95
2022-12-01T04:16:01.410Z,81.32
2022-12-01T04:19:10.367Z,81.31
2022-12-01T04:22:20.410Z,82.04
2022-12-01T04:25:35.343Z,82.05
2022-12-01T04:28:49.650Z,82.08
2022-12-01T04:32:03.826Z,82.21
2022-12-01T04:35:16.472Z,81.92
2022-12-01T04:38:30.215Z,81.53
2022-12-01T04:41:47.059Z,81.85
2022-12-01T04:45:00.884Z,82.52
2022-12-01T04:48:13.364Z,82.10
2022-12-01T04:51:28.068Z,82.31
2022-12-01T04:54:36.820Z,83.29
2022-12-01T04:57:50.574Z,82.62
2022-12-01T05:01:11.774Z,81.91
2022-12-01T05:04:20.712Z,82.07
2022-12-01T05:07:29.330Z,81.91
2022-12-01T05:10:38.327Z,82.25
2022-12-01T05:13:57.392Z,82.47
2022-12-01T05:17:12.113Z,81.95
2022-12-01T05:20:46.469Z,82.52
2022-12-01T05:23:56.301Z,82.70
2022-12-01T05:27:05.301Z,81.91
2022-12-01T05:30:15.791Z,82.57
2022-12-01T05:33:27.026Z,82.47
2022-12-01T05:36:35.919Z,82.52
2022-12-01T05:39:48.698Z,82.51
2022-12-01T05:43:02.776Z,82.11
2022-12-01T05:46:15.946Z,82.90
2022-12-01T05:49:28.574Z,82.77
2022-12-01T06:28:34.131Z,82.12
2022-12-01T06:35:43.296Z,81.58
2022-12-01T06:38:52.047Z,82.62
2022-12-01T06:42:05.395Z,82.77
2022-12-01T06:45:24.412Z,82.61
2022-12-01T06:48:33.843Z,80.96
2022-12-01T06:59:03.949Z,79.90
2022-12-01T07:09:04.402Z,79.83
2022-12-01T07:12:26.661Z,79.04
2022-12-01T07:15:45.042Z,78.46
2022-12-01T07:19:04.388Z,78.21
2022-12-01T07:22:15.121Z,77.77
2022-12-01T07:25:44.368Z,77.31
2022-12-01T07:28:57.655Z,77.14
2022-12-01T07:32:06.647Z,76.48
2022-12-01T07:35:38.709Z,76.07
2022-12-01T07:39:26.785Z,75.26
2022-12-01T07:42:55.766Z,75.11
2022-12-01T07:46:32.376Z,72.66
2022-12-01T07:49:52.308Z,71.74
2022-12-01T07:53:01.652Z,71.62
2022-12-01T07:56:19.763Z,70.89
2022-12-01T08:03:21.809Z,67.37
2022-12-01T08:06:40.657Z,64.86
2022-12-01T08:13:45.394Z,62.54
2022-12-01T08:17:34.231Z,62.29
2022-12-01T08:24:32.491Z,64.79
2022-12-01T08:27:47.600Z,64.74
2022-12-01T08:30:59.642Z,65.46
2022-12-01T08:34:23.556Z,65.41
2022-12-01T08:41:20.635Z,64.09
2022-12-01T08:48:19.563Z,62.61
2022-12-01T08:51:28.385Z,64.40
2022-12-01T08:54:37.520Z,65.44
2022-12-01T08:57:55.218Z,65.19
2022-12-01T09:01:16.732Z,63.95
2022-12-01T09:04:35.033Z,61.78
2022-12-01T09:08:30.438Z,62.06
2022-12-01T09:12:30.245Z,63.21
2022-12-01T09:34:54.263Z,57.82
2022-12-01T09:38:02.678Z,58.91
2022-12-01T09:41:52.673Z,58.17
2022-12-01T09:52:43.496Z,51.58
2022-12-01T09:59:27.227Z,48.96
2022-12-01T10:03:02.161Z,47.49
2022-12-01T10:06:27.784Z,48.03
2022-12-01T10:10:14.749Z,46.90
2022-12-01T10:13:28.189Z,45.65
2022-12-01T10:16:52.687Z,46.07
2022-12-01T10:20:31.184Z,43.73
2022-12-01T10:24:09.973Z,44.17
2022-12-01T10:28:04.538Z,43.30
2022-12-01T10:35:04.486Z,45.99
2022-12-01T10:38:27.412Z,47.54
2022-12-01T10:41:43.642Z,47.07
2022-12-01T10:45:01.108Z,47.05
2022-12-01T10:48:23.721Z,46.00
2022-12-01T10:51:31.839Z,46.93
2022-12-01T10:54:42.329Z,49.00
2022-12-01T11:09:26.173Z,44.22
2022-12-01T11:12:43.800Z,43.19
2022-12-01T11:19:40.667Z,42.80
2022-12-01T11:26:33.143Z,41.08
2022-12-01T11:29:42.900Z,41.02
2022-12-01T11:33:10.681Z,39.27
2022-12-01T11:36:57.550Z,39.43
2022-12-01T11:41:14.984Z,39.02
2022-12-01T11:44:50.492Z,37.70
2022-12-01T11:48:35.820Z,36.63
2022-12-01T12:01:22.426Z,37.53
2022-12-01T12:15:12.629Z,37.87
2022-12-01T12:23:56.015Z,36.74
2022-12-01T12:32:23.417Z,36.62
2022-12-01T13:01:01.390Z,46.87
2022-12-01T13:12:19.277Z,55.84
2022-12-01T13:15:33.575Z,57.22
2022-12-01T13:19:35.812Z,57.82
2022-12-01T13:22:59.019Z,57.92
2022-12-01T13:26:13.336Z,59.44
2022-12-01T13:29:30.153Z,58.94
2022-12-01T13:32:46.668Z,57.56
2022-12-01T13:36:44.741Z,57.28
2022-12-01T13:39:52.037Z,58.27
2022-12-01T13:43:44.391Z,59.15
2022-12-01T13:50:54.324Z,62.89
2022-12-01T13:58:27.286Z,63.41
2022-12-01T14:06:45.653Z,66.36
2022-12-01T14:18:40.153Z,69.82
2022-12-01T14:21:52.669Z,70.31
2022-12-01T14:25:23.822Z,69.98
2022-12-01T14:29:14.837Z,72.03
2022-12-01T14:35:54.359Z,72.81
2022-12-01T14:43:17.802Z,72.61
2022-12-01T14:46:29.529Z,73.90
2022-12-01T14:49:55.440Z,74.97
2022-12-01T14:53:45.014Z,74.63
2022-12-01T15:00:58.267Z,75.90
2022-12-01T15:04:13.652Z,75.12
2022-12-01T15:07:24.168Z,76.25
2022-12-01T15:10:37.222Z,77.13
2022-12-01T15:13:58.445Z,77.27
2022-12-01T15:17:09.319Z,78.33
2022-12-01T15:20:44.893Z,78.84
2022-12-01T15:24:04.784Z,78.93
2022-12-01T15:27:38.259Z,78.86
2022-12-01T15:30:50.116Z,78.91
2022-12-01T15:33:58.685Z,78.59
2022-12-01T15:37:16.848Z,78.85
2022-12-01T15:44:07.367Z,78.83
2022-12-01T15:47:41.720Z,79.30
2022-12-01T15:51:14.992Z,79.64
2022-12-01T15:54:34.866Z,79.47
2022-12-01T15:57:47.409Z,79.85
2022-12-01T16:01:26.539Z,79.63
2022-12-01T16:04:45.266Z,80.07
2022-12-01T16:11:25.576Z,80.95
2022-12-01T16:14:34.367Z,81.48
2022-12-01T16:17:58.159Z,81.40
2022-12-01T16:21:13.263Z,80.85
2022-12-01T16:24:39.251Z,80.44
2022-12-01T16:28:02.991Z,81.19
2022-12-01T16:31:22.642Z,81.02
2022-12-01T16:34:56.763Z,81.82
2022-12-01T16:38:01.368Z,81.98
2022-12-01T16:41:23.650Z,81.79
2022-12-01T16:44:40.260Z,81.83
2022-12-01T16:47:50.097Z,81.91
2022-12-01T16:50:59.095Z,82.02
2022-12-01T16:54:07.988Z,82.47
2022-12-01T16:57:17.300Z,82.48
2022-12-01T17:00:30.993Z,82.05
2022-12-01T17:03:45.328Z,82.59
2022-12-01T17:06:59.184Z,82.59
2022-12-01T17:10:13.364Z,83.17
2022-12-01T17:13:23.461Z,82.43
2022-12-01T17:16:35.866Z,82.20
2022-12-01T17:19:53.939Z,83.11
2022-12-01T17:23:09.875Z,82.03
2022-12-01T17:26:20.310Z,82.56
2022-12-01T17:29:29.302Z,82.70
2022-12-01T17:32:38.714Z,83.31
2022-12-01T17:35:55.664Z,83.92
2022-12-01T17:39:14.994Z,82.95
2022-12-01T17:42:26.413Z,82.98
2022-12-01T17:45:35.309Z,84.07
2022-12-01T17:48:54.129Z,82.37
2022-12-01T17:52:11.760Z,82.06
2022-12-01T17:55:22.373Z,83.02
2022-12-01T17:58:31.372Z,83.95
2022-12-01T18:01:48.506Z,83.75
2022-12-01T18:05:01.479Z,84.43
2022-12-01T18:08:17.977Z,84.99
2022-12-01T18:11:28.270Z,83.68
2022-12-01T18:14:37.374Z,84.17
2022-12-01T18:17:46.478Z,84.06
2022-12-01T18:20:55.375Z,83.70
2022-12-01T18:24:05.753Z,83.82
2022-12-01T18:27:14.723Z,82.85
2022-12-01T18:30:23.414Z,83.00
2022-12-01T18:33:43.087Z,83.11
2022-12-01T18:36:58.830Z,84.22
2022-12-01T18:40:10.791Z,83.47
2022-12-01T18:43:19.584Z,83.99
2022-12-01T18:46:28.428Z,84.17
2022-12-01T18:49:37.373Z,83.88
2022-12-01T18:52:47.311Z,83.64
2022-12-01T18:56:17.322Z,83.64
2022-12-01T18:59:34.480Z,84.19
2022-12-01T19:02:51.765Z,84.11
2022-12-01T19:06:04.374Z,83.74
2022-12-01T19:09:14.309Z,84.38
2022-12-01T19:12:24.113Z,84.10
2022-12-01T19:15:43.375Z,84.08
2022-12-01T19:19:01.278Z,83.72
2022-12-01T19:22:10.384Z,83.52
2022-12-01T19:25:19.376Z,84.00
2022-12-01T19:28:28.790Z,83.48
2022-12-01T19:31:37.482Z,83.72
2022-12-01T19:34:46.384Z,84.25
2022-12-01T19:37:55.375Z,83.35
2022-12-01T19:41:06.095Z,84.08
2022-12-01T19:44:14.715Z,85.00
2022-12-01T19:47:26.474Z,84.68
2022-12-01T19:50:43.920Z,84.93
2022-12-01T19:53:58.256Z,84.84
2022-12-01T19:57:10.371Z,85.00
2022-12-01T20:00:19.373Z,85.49
2022-12-01T20:03:28.783Z,84.46
2022-12-01T20:06:44.176Z,84.49
2022-12-01T20:10:00.464Z,83.66
2022-12-01T20:13:16.262Z,84.24
2022-12-01T20:16:26.362Z,83.91
2022-12-01T20:19:35.305Z,83.45
2022-12-01T20:22:44.410Z,83.06
2022-12-01T20:25:54.071Z,83.78
2022-12-01T20:29:17.296Z,84.34
2022-12-01T20:32:31.264Z,84.77
2022-12-01T20:35:40.368Z,85.26
2022-12-01T20:38:51.132Z,85.58
2022-12-01T20:42:01.623Z,85.09
2022-12-01T20:45:08.716Z,83.76
2022-12-01T20:48:17.718Z,84.42
2022-12-01T20:51:39.378Z,83.94
2022-12-01T20:54:55.120Z,85.66
2022-12-01T20:58:04.368Z,86.05
2022-12-01T21:01:23.028Z,85.05
2022-12-01T21:04:38.511Z,85.63
2022-12-01T21:07:52.307Z,85.34
2022-12-01T21:11:01.368Z,85.67
2022-12-01T21:14:21.583Z,84.50
2022-12-01T21:17:49.904Z,84.50
2022-12-01T21:21:24.751Z,84.24
2022-12-01T21:24:43.741Z,84.13
2022-12-01T21:27:57.020Z,84.04
2022-12-01T21:31:19.410Z,84.79
2022-12-01T21:34:29.306Z,84.42
2022-12-01T21:37:38.408Z,85.10
2022-12-01T21:40:47.719Z,85.12
2022-12-01T21:43:57.847Z,84.70
2022-12-01T21:47:22.100Z,84.02
2022-12-01T21:50:34.369Z,83.69
2022-12-01T21:53:43.371Z,82.32
2022-12-01T21:56:52.370Z,83.20
2022-12-01T22:00:22.368Z,83.35
2022-12-01T22:03:35.286Z,82.70
2022-12-01T22:06:53.409Z,84.38
2022-12-01T22:10:09.350Z,83.19
2022-12-01T22:13:19.370Z,83.42
2022-12-01T22:16:44.240Z,83.76
2022-12-01T22:20:19.370Z,83.69
2022-12-01T22:23:37.928Z,84.16
2022-12-01T22:26:55.667Z,84.21
2022-12-01T22:30:22.897Z,84.66
2022-12-01T22:33:37.160Z,83.95
2022-12-01T22:36:46.374Z,84.75
2022-12-01T22:40:00.112Z,84.41
2022-12-01T22:43:36.014Z,84.29
2022-12-01T22:46:51.103Z,83.19
2022-12-01T22:50:04.263Z,82.94
2022-12-01T22:53:32.114Z,83.34
2022-12-01T22:57:01.037Z,83.99
2022-12-01T23:00:27.856Z,83.77
2022-12-01T23:03:41.248Z,83.06
2022-12-01T23:07:14.405Z,82.87
2022-12-01T23:10:35.177Z,82.73
2022-12-01T23:13:51.918Z,82.94
2022-12-01T23:17:22.371Z,83.45
2022-12-01T23:20:43.471Z,84.04
2022-12-01T23:23:57.521Z,84.03
2022-12-01T23:27:10.369Z,84.60
2022-12-01T23:30:19.370Z,84.16
2022-12-01T23:33:29.405Z,83.79
2022-12-01T23:36:38.418Z,83.35
2022-12-01T23:39:57.745Z,82.83
2022-12-01T23:43:37.369Z,82.67
2022-12-01T23:46:46.410Z,83.57
2022-12-01T23:50:09.775Z,82.35
2022-12-01T23:53:39.663Z,82.67
2022-12-01T23:57:04.913Z,82.66
